Gaines, MI (48436)

4:01 AM EST on February 10, 2016 (GMT -0500)
Gaines TWP | | Change Station
CLOSE
Current Station
Personal Weather Station
Location: Swartz Creek, MI
Elevation: 807 ft
Nearby Weather Stations

Elev 807 ft 42.90 °N, 83.82 °W | Updated 26 seconds ago

Snow
Snow
20.8 °F
Feels Like 13 °F
N
6.0
Wind Variable Wind from WNW
Gusts 9.8 mph

Today
High -- | Low -- °F
--% Chance of Precip.
Yesterday
High -- | Low -- °F
Precip. -- in
Pressure 29.74 in
Visibility 6.0 miles
Clouds Few 2400 ft
Mostly Cloudy 3600 ft
Overcast 5000 ft
Windchill 13 °F
Dew Point 10 °F
Humidity 63%
Rainfall 0.00 in
Snow Depth Not available.
7:40 AM 5:59 PM
Waxing Crescent, 4% visible
METAR KFNT 100853Z AUTO 29013KT 6SM -SN FEW024 BKN036 OVC050 M06/M09 A2971 RMK AO2 SNE0754B14 SLP070 P0000 60000 T10561094 53001
Pressure 29.74 in
Visibility 6.0 miles
Clouds Few 2400 ft
Mostly Cloudy 3600 ft
Overcast 5000 ft
Windchill 13 °F
Dew Point 10 °F
Humidity 63%
Rainfall 0.00 in
Snow Depth Not available.
7:40 AM 5:59 PM
Waxing Crescent, 4% visible
METAR KFNT 100853Z AUTO 29013KT 6SM -SN FEW024 BKN036 OVC050 M06/M09 A2971 RMK AO2 SNE0754B14 SLP070 P0000 60000 T10561094 53001

10-Day Weather Forecast

Almanac

Astronomy

Feb. 10, 2016 Rise Set
Actual Time
Civil Twilight
Nautical Twilight
Astronomical Twilight
Moon
Length of Visible Light
Length of Day
Tomorrow will be .
, % of the Moon is Illuminated

Today's Extremes

State Highs State Lows

Community

WunderPhotos

Upload Photos

1,891,826 photos uploaded!

WunderBlog® & News

Nearby

Air Quality

  Air Quality AQ Index Pollutant
Not available.

Snow Depth

Station Depth Elevation

Earthquake Activity

City Distance Mag. Time & Date
Minimum magnitude displayed is 2.5.

Coastal Water Temperatures

Place Temperature

Stations

Nearby Weather Stations

Station Location Temp. Windchill Dew Point Humidity Wind Precip. Elev Updated Type
                   

Watches & Warnings

There are currently no watches in effect.